sensor_id;sensor_type;location;lat;lon;timestamp;temperature;humidity
20885;DHT22;10602;48.000;9.654;2022-10-16T00:04:53;11.70;99.90
20885;DHT22;10602;48.000;9.654;2022-10-16T00:07:24;11.70;99.90
20885;DHT22;10602;48.000;9.654;2022-10-16T00:10:08;11.70;99.90
20885;DHT22;10602;48.000;9.654;2022-10-16T00:12:45;11.70;99.90
20885;DHT22;10602;48.000;9.654;2022-10-16T00:15:19;11.70;99.90
20885;DHT22;10602;48.000;9.654;2022-10-16T00:17:59;11.70;99.90
20885;DHT22;10602;48.000;9.654;2022-10-16T00:20:50;11.70;99.90
20885;DHT22;10602;48.000;9.654;2022-10-16T00:24:05;11.60;99.90
20885;DHT22;10602;48.000;9.654;2022-10-16T00:25:56;11.60;99.90
20885;DHT22;10602;48.000;9.654;2022-10-16T00:28:50;11.60;99.90
20885;DHT22;10602;48.000;9.654;2022-10-16T00:31:29;11.60;99.90
20885;DHT22;10602;48.000;9.654;2022-10-16T00:33:58;11.60;99.90
20885;DHT22;10602;48.000;9.654;2022-10-16T00:36:34;11.60;99.90
20885;DHT22;10602;48.000;9.654;2022-10-16T00:39:29;11.60;99.90
20885;DHT22;10602;48.000;9.654;2022-10-16T00:42:05;11.60;99.90
20885;DHT22;10602;48.000;9.654;2022-10-16T00:44:58;11.60;99.90
20885;DHT22;10602;48.000;9.654;2022-10-16T00:47:47;11.70;99.90
20885;DHT22;10602;48.000;9.654;2022-10-16T00:50:37;11.70;99.90
20885;DHT22;10602;48.000;9.654;2022-10-16T00:53:22;11.70;99.90
20885;DHT22;10602;48.000;9.654;2022-10-16T00:55:50;11.70;99.90
20885;DHT22;10602;48.000;9.654;2022-10-16T00:58:30;11.60;99.90
20885;DHT22;10602;48.000;9.654;2022-10-16T01:01:04;11.60;99.90
20885;DHT22;10602;48.000;9.654;2022-10-16T01:03:39;11.60;99.90
20885;DHT22;10602;48.000;9.654;2022-10-16T01:09:02;11.60;99.90
20885;DHT22;10602;48.000;9.654;2022-10-16T01:11:38;11.60;99.90
20885;DHT22;10602;48.000;9.654;2022-10-16T01:17:15;11.60;99.90
20885;DHT22;10602;48.000;9.654;2022-10-16T01:34:19;11.60;99.90
20885;DHT22;10602;48.000;9.654;2022-10-16T01:36:53;11.60;99.90
20885;DHT22;10602;48.000;9.654;2022-10-16T01:39:28;11.60;99.90
20885;DHT22;10602;48.000;9.654;2022-10-16T01:42:09;11.60;99.90
20885;DHT22;10602;48.000;9.654;2022-10-16T01:44:40;11.60;99.90
20885;DHT22;10602;48.000;9.654;2022-10-16T01:47:13;11.60;99.90
20885;DHT22;10602;48.000;9.654;2022-10-16T01:49:43;11.60;99.90
20885;DHT22;10602;48.000;9.654;2022-10-16T01:52:15;11.60;99.90
20885;DHT22;10602;48.000;9.654;2022-10-16T01:54:46;11.60;99.90
20885;DHT22;10602;48.000;9.654;2022-10-16T01:57:17;11.60;99.90
20885;DHT22;10602;48.000;9.654;2022-10-16T01:59:48;11.60;99.90
20885;DHT22;10602;48.000;9.654;2022-10-16T02:02:20;11.70;99.90
20885;DHT22;10602;48.000;9.654;2022-10-16T02:05:05;11.70;99.90
20885;DHT22;10602;48.000;9.654;2022-10-16T02:07:29;11.70;99.90
20885;DHT22;10602;48.000;9.654;2022-10-16T02:09:56;11.70;99.90
20885;DHT22;10602;48.000;9.654;2022-10-16T02:12:30;11.70;99.90
20885;DHT22;10602;48.000;9.654;2022-10-16T02:14:58;11.70;99.90
20885;DHT22;10602;48.000;9.654;2022-10-16T02:17:25;11.70;99.90
20885;DHT22;10602;48.000;9.654;2022-10-16T02:19:55;11.70;99.90
20885;DHT22;10602;48.000;9.654;2022-10-16T02:22:30;11.80;99.90
20885;DHT22;10602;48.000;9.654;2022-10-16T02:25:06;11.80;99.90
20885;DHT22;10602;48.000;9.654;2022-10-16T02:27:47;11.80;99.90
20885;DHT22;10602;48.000;9.654;2022-10-16T02:30:19;11.90;99.90
20885;DHT22;10602;48.000;9.654;2022-10-16T02:32:45;11.90;99.90
20885;DHT22;10602;48.000;9.654;2022-10-16T02:35:16;11.90;99.90
20885;DHT22;10602;48.000;9.654;2022-10-16T02:37:46;11.90;99.90
20885;DHT22;10602;48.000;9.654;2022-10-16T02:40:14;11.90;99.90
20885;DHT22;10602;48.000;9.654;2022-10-16T02:42:42;12.00;99.90
20885;DHT22;10602;48.000;9.654;2022-10-16T02:45:11;12.00;99.90
20885;DHT22;10602;48.000;9.654;2022-10-16T02:47:39;12.00;99.90
20885;DHT22;10602;48.000;9.654;2022-10-16T02:50:07;12.00;99.90
20885;DHT22;10602;48.000;9.654;2022-10-16T02:52:34;12.00;99.90
20885;DHT22;10602;48.000;9.654;2022-10-16T02:55:02;12.00;99.90
20885;DHT22;10602;48.000;9.654;2022-10-16T02:57:33;12.00;99.90
20885;DHT22;10602;48.000;9.654;2022-10-16T03:00:02;12.00;99.90
20885;DHT22;10602;48.000;9.654;2022-10-16T03:02:29;12.00;99.90
20885;DHT22;10602;48.000;9.654;2022-10-16T03:04:57;12.00;99.90
20885;DHT22;10602;48.000;9.654;2022-10-16T03:07:25;11.90;99.90
20885;DHT22;10602;48.000;9.654;2022-10-16T03:09:52;11.90;99.90
20885;DHT22;10602;48.000;9.654;2022-10-16T03:12:21;11.90;99.90
20885;DHT22;10602;48.000;9.654;2022-10-16T03:14:48;11.90;99.90
20885;DHT22;10602;48.000;9.654;2022-10-16T03:17:16;11.90;99.90
20885;DHT22;10602;48.000;9.654;2022-10-16T03:19:44;11.90;99.90
20885;DHT22;10602;48.000;9.654;2022-10-16T03:22:12;11.90;99.90
20885;DHT22;10602;48.000;9.654;2022-10-16T03:24:39;12.00;99.90
20885;DHT22;10602;48.000;9.654;2022-10-16T03:27:07;12.00;99.90
20885;DHT22;10602;48.000;9.654;2022-10-16T03:29:39;12.00;99.90
20885;DHT22;10602;48.000;9.654;2022-10-16T03:32:08;12.00;99.90
20885;DHT22;10602;48.000;9.654;2022-10-16T03:34:35;12.00;99.90
20885;DHT22;10602;48.000;9.654;2022-10-16T03:37:03;12.00;99.90
20885;DHT22;10602;48.000;9.654;2022-10-16T03:39:31;12.00;99.90
20885;DHT22;10602;48.000;9.654;2022-10-16T03:41:58;12.00;99.90
20885;DHT22;10602;48.000;9.654;2022-10-16T03:44:26;12.00;99.90
20885;DHT22;10602;48.000;9.654;2022-10-16T03:46:54;11.90;99.90
20885;DHT22;10602;48.000;9.654;2022-10-16T03:49:21;11.90;99.90
20885;DHT22;10602;48.000;9.654;2022-10-16T03:51:49;11.90;99.90
20885;DHT22;10602;48.000;9.654;2022-10-16T03:54:17;11.90;99.90
20885;DHT22;10602;48.000;9.654;2022-10-16T03:56:44;11.90;99.90
20885;DHT22;10602;48.000;9.654;2022-10-16T03:59:12;11.90;99.90
20885;DHT22;10602;48.000;9.654;2022-10-16T04:01:39;11.90;99.90
20885;DHT22;10602;48.000;9.654;2022-10-16T04:04:07;11.80;99.90
20885;DHT22;10602;48.000;9.654;2022-10-16T04:06:34;11.80;99.90
20885;DHT22;10602;48.000;9.654;2022-10-16T04:09:02;11.80;99.90
20885;DHT22;10602;48.000;9.654;2022-10-16T04:11:30;11.80;99.90
20885;DHT22;10602;48.000;9.654;2022-10-16T04:13:57;11.80;99.90
20885;DHT22;10602;48.000;9.654;2022-10-16T04:16:25;11.70;99.90
20885;DHT22;10602;48.000;9.654;2022-10-16T04:18:52;11.80;99.90
20885;DHT22;10602;48.000;9.654;2022-10-16T04:21:20;11.80;99.90
20885;DHT22;10602;48.000;9.654;2022-10-16T04:23:47;11.80;99.90
20885;DHT22;10602;48.000;9.654;2022-10-16T04:26:15;11.70;99.90
20885;DHT22;10602;48.000;9.654;2022-10-16T04:28:43;11.70;99.90
20885;DHT22;10602;48.000;9.654;2022-10-16T04:31:11;11.70;99.90
20885;DHT22;10602;48.000;9.654;2022-10-16T04:33:38;11.70;99.90
20885;DHT22;10602;48.000;9.654;2022-10-16T04:36:06;11.70;99.90
20885;DHT22;10602;48.000;9.654;2022-10-16T04:38:33;11.60;99.90
20885;DHT22;10602;48.000;9.654;2022-10-16T04:41:01;11.60;99.90
20885;DHT22;10602;48.000;9.654;2022-10-16T04:43:28;11.60;99.90
20885;DHT22;10602;48.000;9.654;2022-10-16T04:45:56;11.50;99.90
20885;DHT22;10602;48.000;9.654;2022-10-16T04:48:23;11.50;99.90
20885;DHT22;10602;48.000;9.654;2022-10-16T04:50:51;11.40;99.90
20885;DHT22;10602;48.000;9.654;2022-10-16T04:53:19;11.40;99.90
20885;DHT22;10602;48.000;9.654;2022-10-16T04:55:46;11.40;99.90
20885;DHT22;10602;48.000;9.654;2022-10-16T04:58:14;11.30;99.90
20885;DHT22;10602;48.000;9.654;2022-10-16T05:00:41;11.30;99.90
20885;DHT22;10602;48.000;9.654;2022-10-16T05:03:09;11.30;99.90
20885;DHT22;10602;48.000;9.654;2022-10-16T05:05:37;11.30;99.90
20885;DHT22;10602;48.000;9.654;2022-10-16T05:08:06;11.20;99.90
20885;DHT22;10602;48.000;9.654;2022-10-16T05:10:33;11.30;99.90
20885;DHT22;10602;48.000;9.654;2022-10-16T05:13:01;11.20;99.90
20885;DHT22;10602;48.000;9.654;2022-10-16T05:15:28;11.20;99.90
20885;DHT22;10602;48.000;9.654;2022-10-16T05:17:56;11.20;99.90
20885;DHT22;10602;48.000;9.654;2022-10-16T05:20:23;11.20;99.90
20885;DHT22;10602;48.000;9.654;2022-10-16T05:22:51;11.20;99.90
20885;DHT22;10602;48.000;9.654;2022-10-16T05:25:18;11.30;99.90
20885;DHT22;10602;48.000;9.654;2022-10-16T05:27:49;11.30;99.90
20885;DHT22;10602;48.000;9.654;2022-10-16T05:30:17;11.30;99.90
20885;DHT22;10602;48.000;9.654;2022-10-16T05:32:48;11.30;99.90
20885;DHT22;10602;48.000;9.654;2022-10-16T05:35:17;11.30;99.90
20885;DHT22;10602;48.000;9.654;2022-10-16T05:37:45;11.30;99.90
20885;DHT22;10602;48.000;9.654;2022-10-16T05:40:13;11.30;99.90
20885;DHT22;10602;48.000;9.654;2022-10-16T05:42:41;11.30;99.90
20885;DHT22;10602;48.000;9.654;2022-10-16T05:45:10;11.30;99.90
20885;DHT22;10602;48.000;9.654;2022-10-16T05:47:39;11.40;99.90
20885;DHT22;10602;48.000;9.654;2022-10-16T05:50:26;11.40;99.90
20885;DHT22;10602;48.000;9.654;2022-10-16T05:52:53;11.30;99.90
20885;DHT22;10602;48.000;9.654;2022-10-16T05:55:21;11.30;99.90
20885;DHT22;10602;48.000;9.654;2022-10-16T05:57:48;11.40;99.90
20885;DHT22;10602;48.000;9.654;2022-10-16T06:00:16;11.40;99.90
20885;DHT22;10602;48.000;9.654;2022-10-16T06:02:44;11.40;99.90
20885;DHT22;10602;48.000;9.654;2022-10-16T06:05:11;11.40;99.90
20885;DHT22;10602;48.000;9.654;2022-10-16T06:07:39;11.50;99.90
20885;DHT22;10602;48.000;9.654;2022-10-16T06:10:07;11.50;99.90
20885;DHT22;10602;48.000;9.654;2022-10-16T06:12:35;11.50;99.90
20885;DHT22;10602;48.000;9.654;2022-10-16T06:15:03;11.50;99.90
20885;DHT22;10602;48.000;9.654;2022-10-16T06:17:30;11.50;99.90
20885;DHT22;10602;48.000;9.654;2022-10-16T06:19:58;11.50;99.90
20885;DHT22;10602;48.000;9.654;2022-10-16T06:22:25;11.60;99.90
20885;DHT22;10602;48.000;9.654;2022-10-16T06:24:53;11.60;99.90
20885;DHT22;10602;48.000;9.654;2022-10-16T06:27:20;11.70;99.90
20885;DHT22;10602;48.000;9.654;2022-10-16T06:29:48;11.70;99.90
20885;DHT22;10602;48.000;9.654;2022-10-16T06:32:16;11.80;99.90
20885;DHT22;10602;48.000;9.654;2022-10-16T06:34:45;11.80;99.90
20885;DHT22;10602;48.000;9.654;2022-10-16T06:37:12;11.90;99.90
20885;DHT22;10602;48.000;9.654;2022-10-16T06:39:40;11.90;99.90
20885;DHT22;10602;48.000;9.654;2022-10-16T06:42:07;11.90;99.90
20885;DHT22;10602;48.000;9.654;2022-10-16T06:44:35;12.00;99.90
20885;DHT22;10602;48.000;9.654;2022-10-16T06:47:03;12.10;99.90
20885;DHT22;10602;48.000;9.654;2022-10-16T06:49:31;12.30;99.90
20885;DHT22;10602;48.000;9.654;2022-10-16T06:51:59;12.40;99.90
20885;DHT22;10602;48.000;9.654;2022-10-16T06:54:28;12.50;99.90
20885;DHT22;10602;48.000;9.654;2022-10-16T06:56:57;12.60;99.90
20885;DHT22;10602;48.000;9.654;2022-10-16T07:18:18;13.60;99.90
20885;DHT22;10602;48.000;9.654;2022-10-16T07:20:47;13.90;99.90
20885;DHT22;10602;48.000;9.654;2022-10-16T07:23:22;14.40;99.90
20885;DHT22;10602;48.000;9.654;2022-10-16T07:25:54;15.00;99.90
20885;DHT22;10602;48.000;9.654;2022-10-16T07:28:42;15.60;99.90
20885;DHT22;10602;48.000;9.654;2022-10-16T07:31:14;15.80;99.90
20885;DHT22;10602;48.000;9.654;2022-10-16T07:33:45;16.10;99.90
20885;DHT22;10602;48.000;9.654;2022-10-16T07:36:16;16.10;99.90
20885;DHT22;10602;48.000;9.654;2022-10-16T07:38:44;16.40;99.90
20885;DHT22;10602;48.000;9.654;2022-10-16T07:41:15;17.00;99.90
20885;DHT22;10602;48.000;9.654;2022-10-16T07:43:47;18.30;99.90
20885;DHT22;10602;48.000;9.654;2022-10-16T07:46:15;20.00;99.90
20885;DHT22;10602;48.000;9.654;2022-10-16T07:48:43;21.60;99.90
20885;DHT22;10602;48.000;9.654;2022-10-16T07:51:16;22.30;99.90
20885;DHT22;10602;48.000;9.654;2022-10-16T07:53:43;22.30;99.90
20885;DHT22;10602;48.000;9.654;2022-10-16T07:56:11;21.60;99.90
20885;DHT22;10602;48.000;9.654;2022-10-16T07:58:38;20.70;99.90
20885;DHT22;10602;48.000;9.654;2022-10-16T08:01:08;19.80;99.90
20885;DHT22;10602;48.000;9.654;2022-10-16T08:03:36;19.20;99.90
20885;DHT22;10602;48.000;9.654;2022-10-16T08:06:04;18.70;99.90
20885;DHT22;10602;48.000;9.654;2022-10-16T08:08:32;18.50;99.90
20885;DHT22;10602;48.000;9.654;2022-10-16T08:10:59;18.40;99.90
20885;DHT22;10602;48.000;9.654;2022-10-16T08:13:29;18.50;99.90
20885;DHT22;10602;48.000;9.654;2022-10-16T08:15:56;18.60;99.90
20885;DHT22;10602;48.000;9.654;2022-10-16T08:18:24;18.80;99.90
20885;DHT22;10602;48.000;9.654;2022-10-16T08:20:58;18.90;99.90
20885;DHT22;10602;48.000;9.654;2022-10-16T08:23:27;18.90;99.90
20885;DHT22;10602;48.000;9.654;2022-10-16T08:25:55;18.90;99.90
20885;DHT22;10602;48.000;9.654;2022-10-16T08:28:24;18.90;99.90
20885;DHT22;10602;48.000;9.654;2022-10-16T08:30:52;18.80;99.90
20885;DHT22;10602;48.000;9.654;2022-10-16T08:33:20;18.70;99.90
20885;DHT22;10602;48.000;9.654;2022-10-16T08:35:51;18.70;99.90
20885;DHT22;10602;48.000;9.654;2022-10-16T08:38:20;18.80;99.90
20885;DHT22;10602;48.000;9.654;2022-10-16T08:40:48;18.90;99.90
20885;DHT22;10602;48.000;9.654;2022-10-16T08:49:03;18.80;99.90
20885;DHT22;10602;48.000;9.654;2022-10-16T08:51:36;19.10;99.90
20885;DHT22;10602;48.000;9.654;2022-10-16T08:54:05;19.20;99.90
20885;DHT22;10602;48.000;9.654;2022-10-16T08:56:35;19.40;99.90
20885;DHT22;10602;48.000;9.654;2022-10-16T08:59:04;19.40;99.90
20885;DHT22;10602;48.000;9.654;2022-10-16T09:01:41;19.40;99.90
20885;DHT22;10602;48.000;9.654;2022-10-16T09:04:48;19.20;99.90
20885;DHT22;10602;48.000;9.654;2022-10-16T09:07:20;18.80;99.90
20885;DHT22;10602;48.000;9.654;2022-10-16T09:15:33;18.70;99.90
20885;DHT22;10602;48.000;9.654;2022-10-16T09:18:06;18.90;99.90
20885;DHT22;10602;48.000;9.654;2022-10-16T09:20:51;18.90;99.90
20885;DHT22;10602;48.000;9.654;2022-10-16T09:23:19;19.00;99.90
20885;DHT22;10602;48.000;9.654;2022-10-16T09:25:49;19.30;99.90
20885;DHT22;10602;48.000;9.654;2022-10-16T09:28:18;19.80;99.90
20885;DHT22;10602;48.000;9.654;2022-10-16T09:30:46;20.20;99.90
20885;DHT22;10602;48.000;9.654;2022-10-16T09:33:23;20.70;99.90
20885;DHT22;10602;48.000;9.654;2022-10-16T09:35:53;21.00;99.90
20885;DHT22;10602;48.000;9.654;2022-10-16T09:38:29;21.30;99.90
20885;DHT22;10602;48.000;9.654;2022-10-16T09:41:13;21.60;99.90
20885;DHT22;10602;48.000;9.654;2022-10-16T09:43:41;21.90;99.90
20885;DHT22;10602;48.000;9.654;2022-10-16T09:48:59;22.10;99.70
20885;DHT22;10602;48.000;9.654;2022-10-16T09:51:32;21.40;98.20
20885;DHT22;10602;48.000;9.654;2022-10-16T09:56:38;20.80;99.90
20885;DHT22;10602;48.000;9.654;2022-10-16T09:59:20;21.10;99.90
20885;DHT22;10602;48.000;9.654;2022-10-16T10:01:52;21.10;99.90
20885;DHT22;10602;48.000;9.654;2022-10-16T10:04:22;21.10;99.90
20885;DHT22;10602;48.000;9.654;2022-10-16T10:06:54;21.10;99.90
20885;DHT22;10602;48.000;9.654;2022-10-16T10:09:25;21.20;99.90
20885;DHT22;10602;48.000;9.654;2022-10-16T10:13:01;21.30;98.50
20885;DHT22;10602;48.000;9.654;2022-10-16T10:14:51;21.80;97.60
